Aeroporto :
LOGIN :

Iscrizione | Disclaimer

   EN    FR    IT 

 










Sommario :    VFR   VFR Marginale   IFR   IFR Intensivo   IFR Molto Intensivo
Visibilità : 
Base nubi : 
>= 8 km
>= 3000ft
5 / 8 km
1000 / 3000 ft
1500m / 5 km
500 / 1000 ft
800 / 1500m
200 / 500 ft
< 800m
< 200 ft
Simboli :   Temporali  Nebbia  Neve Forte  Precipitazioni Forti  Vento > 20 kt
SIGMETs :   Varie  Temporali  Ghiacco  Turbolenza  Onda orograficha  Ceneri Vulcaniche






- Altitudine del aeroporto : 1649 ft
- Codice IATA : HHN


EDFH - Frankfurt-Hahn Rhineland-Palatinate

ULTIMO METAR :
  • 122250Z 23005KT 200V280 9999 BKN009 01/01 Q1001

METARs OBSOLETI :
  • 122220Z 25007KT 210V280 9999 BKN008 01/01 Q1001
  • 122150Z 26008KT 9999 FEW010 01/00 Q1001
  • 122120Z 26006KT CAVOK 01/00 Q1001
  • 122050Z 23006KT CAVOK 01/01 Q1001

TAF TAF EDFH
Valido dal 12 a 18 ore il 13 a 18 ore UTC


121700Z 1218/1318 22009KT 9999 SCT020
BECMG 1222/1302 BKN005
TEMPO 1302/1314 1800 -DZRA BKN002 OVC007
BECMG 1314/1317 BKN012



MetMap, La meteo Aeronautica in un colpo d'occhio ! - Copyright ORBIFLY Dicembre 2007 - Disclaimer

ORBIFLY MET'MAP TEAM :

Programmazione e sviluppo : Alexandra Zaïnal
Concezione e sviluppo : Baudouin d'Aumeries
Co-Programmazione e sviluppo : Marc-Olivier Méhu
Supporto tecnico e logistico : Manuel Goepfert
Aiuto per la traduzione : Arnaldo La Scala

Contatto : metmap@orbifly.com




FONTI E CREDITI :

   NOAA